Time;durP1;ratioP1;P1;durP2;ratioP2;P2;SDS_P1;SDS_P2;PMS_P1;PMS_P2;Temp;Humidity;BMP_temperature;BMP_pressure;BME280_temperature;BME280_humidity;BME280_pressure;Samples;Min_cycle;Max_cycle;Signal;HPM_P1;HPM_P2
2021/04/16 00:00:08;;;;;;;12.60;6.13;;;9.00;62.80;;;;;;5074081;28;20473;-68
2021/04/16 00:02:35;;;;;;;11.90;5.50;;;9.00;62.90;;;;;;5074433;28;20052;-68
2021/04/16 00:05:00;;;;;;;10.10;5.03;;;8.90;63.40;;;;;;5074420;28;20388;-67
2021/04/16 00:07:26;;;;;;;10.10;3.97;;;8.90;62.60;;;;;;5074399;28;20089;-68
2021/04/16 00:09:52;;;;;;;9.97;4.43;;;8.90;61.90;;;;;;5074295;28;20033;-67
2021/04/16 00:12:18;;;;;;;9.07;4.90;;;8.90;62.00;;;;;;5074011;28;20024;-67
2021/04/16 00:14:43;;;;;;;7.73;5.03;;;8.90;62.20;;;;;;5074354;28;20396;-68
2021/04/16 00:17:09;;;;;;;10.37;4.97;;;8.90;62.30;;;;;;5073881;28;20477;-68
2021/04/16 00:19:35;;;;;;;9.43;4.87;;;8.90;61.50;;;;;;5074051;28;20373;-68
2021/04/16 00:22:01;;;;;;;7.73;4.87;;;8.80;61.20;;;;;;5074253;28;20039;-68
2021/04/16 00:24:27;;;;;;;10.47;5.03;;;8.80;61.50;;;;;;5056322;28;20103;-68
2021/04/16 00:26:53;;;;;;;10.10;5.27;;;8.80;61.30;;;;;;5074021;28;20107;-68
2021/04/16 00:29:18;;;;;;;11.17;4.43;;;8.80;60.90;;;;;;5073993;28;20392;-68
2021/04/16 00:31:50;;;;;;;7.60;4.27;;;8.70;61.00;;;;;;5073821;28;20043;-68
2021/04/16 00:34:18;;;;;;;6.60;3.97;;;8.70;61.00;;;;;;5073720;28;20013;-68
2021/04/16 00:36:44;;;;;;;6.63;4.20;;;8.70;60.30;;;;;;5073757;28;20028;-68
2021/04/16 00:39:10;;;;;;;15.00;4.73;;;8.70;60.30;;;;;;5073797;28;20027;-67
2021/04/16 00:41:36;;;;;;;6.60;4.40;;;8.70;60.00;;;;;;5073330;28;20079;-67
2021/04/16 00:44:01;;;;;;;7.47;4.00;;;8.60;59.70;;;;;;5073652;28;20024;-68
2021/04/16 00:46:34;;;;;;;7.87;4.83;;;8.60;58.80;;;;;;5073714;28;20013;-68
2021/04/16 00:49:03;;;;;;;7.90;4.43;;;8.60;59.90;;;;;;5073365;28;20082;-68
2021/04/16 00:51:35;;;;;;;12.90;4.43;;;8.60;60.90;;;;;;5073210;28;20102;-67
2021/04/16 00:54:02;;;;;;;10.37;5.40;;;8.60;60.80;;;;;;5073259;28;20090;-67
2021/04/16 00:56:29;;;;;;;12.07;5.57;;;8.50;61.40;;;;;;5073150;28;20029;-68
2021/04/16 00:58:56;;;;;;;8.73;4.77;;;8.50;61.70;;;;;;5071178;28;20031;-68
2021/04/16 01:01:23;;;;;;;8.93;4.43;;;8.40;61.70;;;;;;5070420;28;20040;-68
2021/04/16 01:03:49;;;;;;;7.73;4.50;;;8.40;61.50;;;;;;5070471;28;20048;-68
2021/04/16 01:06:14;;;;;;;11.90;4.93;;;8.30;61.70;;;;;;5073164;28;20020;-67
2021/04/16 01:08:41;;;;;;;7.13;3.77;;;8.30;61.90;;;;;;5073099;28;20020;-68
2021/04/16 01:11:07;;;;;;;7.50;3.73;;;8.30;61.60;;;;;;5072992;28;20028;-67
2021/04/16 01:13:36;;;;;;;8.07;4.13;;;8.30;60.80;;;;;;5072826;28;20024;-67
2021/04/16 01:16:09;;;;;;;10.60;3.80;;;8.20;60.30;;;;;;5073200;28;20025;-68
2021/04/16 01:18:39;;;;;;;9.80;4.15;;;8.20;59.30;;;;;;5073280;28;20016;-67
2021/04/16 01:21:18;;;;;;;8.13;3.80;;;8.20;59.80;;;;;;5072760;28;20032;-68
2021/04/16 01:24:03;;;;;;;8.70;3.83;;;8.20;59.10;;;;;;5073244;28;20036;-67
2021/04/16 01:26:38;;;;;;;9.30;3.77;;;8.30;58.30;;;;;;5073283;28;20025;-67
2021/04/16 01:29:05;;;;;;;14.73;3.50;;;8.30;57.60;;;;;;5072269;28;20107;-67
2021/04/16 01:31:31;;;;;;;8.57;3.60;;;8.30;56.60;;;;;;5073035;28;20442;-67
2021/04/16 01:33:57;;;;;;;4.87;3.00;;;8.30;56.60;;;;;;5054880;28;20048;-67
2021/04/16 01:36:26;;;;;;;8.73;3.50;;;8.30;56.10;;;;;;5072740;28;20027;-67
2021/04/16 01:38:54;;;;;;;5.27;2.80;;;8.40;56.80;;;;;;5072950;28;20523;-67
2021/04/16 01:41:21;;;;;;;9.07;3.20;;;8.50;56.10;;;;;;5072767;28;20111;-67
2021/04/16 01:43:56;;;;;;;6.67;3.23;;;8.40;55.60;;;;;;5072797;28;20032;-67
2021/04/16 01:46:23;;;;;;;9.03;3.10;;;8.60;55.30;;;;;;5072925;28;20036;-67
2021/04/16 01:48:57;;;;;;;7.03;3.03;;;8.60;54.00;;;;;;5072756;28;20520;-67
2021/04/16 01:51:28;;;;;;;4.13;2.80;;;8.60;54.60;;;;;;5072286;28;20076;-66
2021/04/16 01:54:13;;;;;;;4.97;3.13;;;8.60;54.60;;;;;;5054817;28;20021;-67
2021/04/16 01:56:42;;;;;;;6.60;3.07;;;8.60;54.10;;;;;;5072694;28;20100;-67
2021/04/16 01:59:10;;;;;;;5.87;3.03;;;8.60;54.60;;;;;;5072639;28;20462;-67
2021/04/16 02:01:36;;;;;;;4.20;2.60;;;8.60;54.80;;;;;;5072313;28;20033;-67
2021/04/16 02:04:02;;;;;;;10.03;3.87;;;8.60;55.40;;;;;;5073034;28;20104;-67
2021/04/16 02:06:32;;;;;;;5.47;2.80;;;8.60;55.60;;;;;;5072664;28;20029;-67
2021/04/16 02:08:58;;;;;;;4.90;2.87;;;8.60;53.80;;;;;;5072728;28;20106;-67
2021/04/16 02:11:23;;;;;;;5.70;2.67;;;8.60;54.30;;;;;;5072728;28;20389;-67
2021/04/16 02:13:49;;;;;;;12.87;3.00;;;8.60;53.50;;;;;;5072530;28;20024;-67
2021/04/16 02:16:15;;;;;;;5.10;2.60;;;8.60;53.30;;;;;;5072432;28;20028;-67
2021/04/16 02:18:40;;;;;;;5.00;2.30;;;8.60;52.70;;;;;;5072624;28;20025;-67
2021/04/16 02:21:06;;;;;;;7.77;3.03;;;8.70;52.60;;;;;;5072436;28;20036;-66
2021/04/16 02:23:32;;;;;;;6.17;2.97;;;8.70;51.50;;;;;;5072720;28;20392;-67
2021/04/16 02:25:58;;;;;;;6.43;2.83;;;8.70;51.60;;;;;;5072302;28;20040;-67
2021/04/16 02:28:23;;;;;;;8.07;2.50;;;8.70;52.10;;;;;;5072719;28;20029;-67
2021/04/16 02:30:49;;;;;;;6.43;2.60;;;8.60;52.70;;;;;;5072482;28;20389;-67
2021/04/16 02:33:15;;;;;;;3.93;2.60;;;8.60;52.30;;;;;;5072805;28;20036;-67
2021/04/16 02:35:41;;;;;;;9.13;3.13;;;8.60;53.30;;;;;;5072685;28;20104;-67
2021/04/16 02:38:06;;;;;;;8.90;2.80;;;8.60;52.50;;;;;;5072418;28;20048;-67
2021/04/16 02:40:32;;;;;;;5.13;2.70;;;8.60;52.90;;;;;;5075238;28;20153;-68
2021/04/16 02:42:58;;;;;;;9.90;3.27;;;8.60;52.70;;;;;;5076135;28;20033;-67
2021/04/16 02:45:25;;;;;;;6.77;3.70;;;8.60;53.80;;;;;;5076134;28;20548;-67
2021/04/16 02:47:52;;;;;;;10.67;4.20;;;8.50;54.90;;;;;;5075892;28;20037;-67
2021/04/16 02:50:21;;;;;;;7.63;3.83;;;8.50;55.40;;;;;;5054392;28;20052;-67
2021/04/16 02:52:47;;;;;;;11.23;3.67;;;8.40;54.90;;;;;;5056020;28;20035;-67
2021/04/16 02:55:14;;;;;;;12.50;4.23;;;8.40;54.40;;;;;;5055745;28;20029;-67
2021/04/16 02:57:40;;;;;;;9.20;4.10;;;8.40;54.00;;;;;;5055937;28;20033;-67
2021/04/16 03:00:14;;;;;;;9.27;4.17;;;8.40;54.40;;;;;;5055895;28;20032;-67
2021/04/16 03:02:40;;;;;;;9.53;4.27;;;8.40;54.50;;;;;;5055735;28;20041;-67
2021/04/16 03:05:06;;;;;;;10.63;3.27;;;8.30;55.10;;;;;;5055884;28;20027;-67
2021/04/16 03:07:32;;;;;;;15.53;3.90;;;8.30;54.30;;;;;;5056240;28;20433;-68
2021/04/16 03:09:57;;;;;;;14.20;3.83;;;8.30;53.60;;;;;;5055975;28;20109;-67
2021/04/16 03:12:23;;;;;;;9.47;3.57;;;8.30;53.30;;;;;;5055603;28;20025;-68
2021/04/16 03:14:49;;;;;;;9.63;3.67;;;8.30;53.50;;;;;;5055587;28;20025;-67
2021/04/16 03:17:15;;;;;;;13.80;3.57;;;8.30;53.10;;;;;;5055776;28;20021;-68
2021/04/16 03:19:40;;;;;;;6.60;2.83;;;8.30;53.10;;;;;;5055589;28;20032;-67
2021/04/16 03:22:06;;;;;;;11.27;3.30;;;8.30;53.70;;;;;;5055297;28;20071;-67
2021/04/16 03:24:32;;;;;;;8.70;2.90;;;8.30;52.90;;;;;;5055766;28;20099;-67
2021/04/16 03:26:57;;;;;;;5.43;3.43;;;8.30;53.20;;;;;;5055804;28;20032;-67
2021/04/16 03:29:23;;;;;;;9.27;2.87;;;8.30;53.40;;;;;;5055145;28;20029;-68
2021/04/16 03:31:49;;;;;;;10.60;3.70;;;8.30;54.60;;;;;;5055843;28;20025;-67
2021/04/16 03:34:14;;;;;;;16.90;4.97;;;8.30;55.10;;;;;;5055360;28;20025;-67
2021/04/16 03:36:40;;;;;;;10.73;3.40;;;8.30;54.50;;;;;;5055211;28;20154;-68
2021/04/16 03:39:06;;;;;;;8.00;3.37;;;8.30;53.90;;;;;;5055035;28;20471;-68
2021/04/16 03:41:32;;;;;;;11.77;3.83;;;8.30;54.00;;;;;;5054821;28;20036;-67
2021/04/16 03:43:57;;;;;;;9.03;3.23;;;8.30;54.40;;;;;;5055040;28;20107;-67
2021/04/16 03:46:23;;;;;;;7.60;4.03;;;8.30;54.30;;;;;;5054890;28;20029;-67
2021/04/16 03:48:49;;;;;;;11.07;3.80;;;8.20;54.90;;;;;;5055148;28;20025;-67
2021/04/16 03:51:16;;;;;;;8.60;4.03;;;8.20;55.70;;;;;;5068467;28;20059;-67
2021/04/16 03:53:43;;;;;;;9.57;4.47;;;8.20;56.20;;;;;;5074575;28;20025;-68
2021/04/16 03:56:10;;;;;;;8.37;3.90;;;8.10;57.60;;;;;;5074623;28;20028;-68
2021/04/16 03:58:37;;;;;;;9.30;4.13;;;8.10;58.00;;;;;;5074631;28;20025;-68
2021/04/16 04:01:05;;;;;;;11.07;4.63;;;8.10;57.90;;;;;;5074426;28;20082;-67
2021/04/16 04:03:31;;;;;;;11.27;4.27;;;8.00;57.70;;;;;;5074689;28;20477;-68
2021/04/16 04:05:56;;;;;;;12.43;4.60;;;8.00;58.50;;;;;;5074581;28;20025;-67
2021/04/16 04:08:22;;;;;;;15.43;4.93;;;7.90;58.80;;;;;;5074444;28;20024;-68
2021/04/16 04:10:48;;;;;;;9.90;4.10;;;7.90;59.40;;;;;;5074334;28;20469;-67
2021/04/16 04:13:14;;;;;;;8.00;4.20;;;7.80;59.00;;;;;;5074411;28;20064;-67
2021/04/16 04:15:41;;;;;;;14.67;4.53;;;7.70;58.90;;;;;;5074228;28;20021;-67
2021/04/16 04:18:07;;;;;;;8.03;4.53;;;7.70;59.80;;;;;;5074275;28;20389;-67
2021/04/16 04:20:34;;;;;;;12.30;4.77;;;7.60;61.20;;;;;;5074249;28;20112;-67
2021/04/16 04:23:01;;;;;;;8.40;4.10;;;7.60;61.20;;;;;;5074172;28;20073;-67
2021/04/16 04:25:29;;;;;;;13.30;4.53;;;7.60;60.20;;;;;;5074284;28;20024;-68
2021/04/16 04:27:56;;;;;;;11.83;4.77;;;7.50;60.50;;;;;;5074287;28;20085;-67
2021/04/16 04:30:26;;;;;;;6.23;3.80;;;7.40;61.30;;;;;;5074178;28;20031;-68
2021/04/16 04:32:52;;;;;;;14.90;4.33;;;7.40;61.40;;;;;;5073937;28;20033;-67
2021/04/16 04:35:18;;;;;;;8.40;4.30;;;7.40;61.80;;;;;;5074040;28;20036;-68
2021/04/16 04:37:44;;;;;;;13.27;4.10;;;7.30;61.80;;;;;;5074125;28;20098;-68
2021/04/16 04:40:11;;;;;;;16.07;3.90;;;7.30;61.80;;;;;;5073661;28;20472;-68
2021/04/16 04:42:36;;;;;;;13.80;4.00;;;7.30;62.30;;;;;;5073880;28;20043;-67
2021/04/16 04:45:04;;;;;;;10.97;3.30;;;7.30;60.90;;;;;;5074199;28;20451;-67
2021/04/16 04:47:30;;;;;;;6.57;3.37;;;7.30;59.10;;;;;;5073999;28;20051;-67
2021/04/16 04:49:56;;;;;;;7.93;3.60;;;7.30;58.60;;;;;;5073346;28;20481;-66
2021/04/16 04:52:31;;;;;;;7.40;3.37;;;7.30;58.80;;;;;;5073529;28;20028;-67
2021/04/16 04:54:59;;;;;;;6.30;3.10;;;7.40;58.20;;;;;;5073880;28;20020;-66
2021/04/16 04:57:26;;;;;;;7.50;3.43;;;7.40;58.70;;;;;;5073620;28;20119;-66
2021/04/16 04:59:52;;;;;;;9.87;3.83;;;7.40;57.50;;;;;;5073620;28;20096;-66
2021/04/16 05:02:20;;;;;;;8.67;3.17;;;7.40;57.40;;;;;;5055245;28;20449;-67
2021/04/16 05:04:46;;;;;;;7.30;2.90;;;7.40;57.20;;;;;;5073461;28;20024;-66
2021/04/16 05:07:13;;;;;;;6.43;2.97;;;7.40;57.40;;;;;;5073306;28;20028;-67
2021/04/16 05:09:39;;;;;;;6.87;3.30;;;7.50;56.70;;;;;;5073386;28;20047;-67
2021/04/16 05:12:05;;;;;;;6.17;2.87;;;7.50;55.90;;;;;;5073603;28;20534;-66
2021/04/16 05:14:31;;;;;;;14.07;3.50;;;7.50;55.60;;;;;;5073354;28;20025;-67
2021/04/16 05:16:57;;;;;;;7.70;2.87;;;7.60;55.30;;;;;;5073549;28;20164;-66
2021/04/16 05:19:23;;;;;;;7.07;2.77;;;7.60;55.10;;;;;;5073545;28;21187;-67
2021/04/16 05:21:50;;;;;;;7.70;2.97;;;7.60;54.50;;;;;;5073078;28;20036;-66
2021/04/16 05:24:16;;;;;;;9.03;3.13;;;7.70;54.80;;;;;;5073195;28;20020;-66
2021/04/16 05:26:42;;;;;;;5.57;3.00;;;7.70;54.80;;;;;;5073244;28;20028;-67
2021/04/16 05:29:08;;;;;;;6.57;2.70;;;7.70;55.20;;;;;;5073176;28;20024;-67
2021/04/16 05:31:35;;;;;;;8.77;3.30;;;7.70;54.70;;;;;;5073221;28;20493;-66
2021/04/16 05:34:01;;;;;;;12.27;2.97;;;7.70;54.70;;;;;;5055182;28;20051;-66
2021/04/16 05:36:27;;;;;;;9.97;3.10;;;7.80;54.30;;;;;;5072827;28;20020;-67
2021/04/16 05:38:53;;;;;;;8.60;2.60;;;7.70;54.60;;;;;;5073143;28;20532;-67
2021/04/16 05:41:20;;;;;;;8.93;2.77;;;7.80;55.80;;;;;;5072858;28;20020;-68
2021/04/16 05:43:46;;;;;;;4.37;2.60;;;7.80;55.80;;;;;;5073035;28;20024;-67
2021/04/16 05:46:12;;;;;;;5.50;2.80;;;7.90;55.20;;;;;;5073032;28;20031;-66
2021/04/16 05:48:38;;;;;;;8.53;2.87;;;8.00;54.90;;;;;;5073087;28;20029;-67
2021/04/16 05:51:04;;;;;;;3.73;2.53;;;8.00;53.80;;;;;;5072803;28;20045;-66
2021/04/16 05:53:30;;;;;;;6.63;2.87;;;8.10;52.70;;;;;;5072853;28;20028;-66
2021/04/16 05:55:56;;;;;;;10.87;2.97;;;8.20;52.00;;;;;;5073007;28;20087;-67
2021/04/16 05:58:22;;;;;;;7.17;3.40;;;8.30;51.00;;;;;;5072619;28;20384;-66
2021/04/16 06:00:47;;;;;;;5.33;2.90;;;8.30;50.90;;;;;;5072578;28;20517;-67
2021/04/16 06:03:16;;;;;;;8.90;3.20;;;8.40;50.30;;;;;;5072858;28;20025;-67
2021/04/16 06:05:41;;;;;;;8.53;3.30;;;8.50;50.00;;;;;;5072403;28;20028;-67
2021/04/16 06:08:07;;;;;;;4.80;2.87;;;8.50;49.60;;;;;;5072627;28;20028;-67
2021/04/16 06:10:33;;;;;;;9.87;3.07;;;8.60;49.10;;;;;;5072349;28;20067;-67
2021/04/16 06:12:58;;;;;;;10.17;3.13;;;8.60;49.70;;;;;;5072601;28;20485;-67
2021/04/16 06:15:27;;;;;;;9.03;3.87;;;8.60;50.00;;;;;;5075644;28;20473;-67
2021/04/16 06:17:52;;;;;;;6.40;3.30;;;8.70;50.80;;;;;;5076250;28;20056;-68
2021/04/16 06:20:20;;;;;;;4.73;2.47;;;8.70;50.70;;;;;;5076624;28;20048;-67
2021/04/16 06:22:48;;;;;;;8.20;2.93;;;8.80;51.00;;;;;;5076251;28;20104;-67
2021/04/16 06:25:16;;;;;;;11.10;2.70;;;8.90;49.30;;;;;;5076072;28;20074;-67
2021/04/16 06:27:42;;;;;;;5.93;2.47;;;8.90;48.80;;;;;;5075818;28;20029;-67
2021/04/16 06:30:10;;;;;;;9.03;2.77;;;9.00;48.90;;;;;;5076027;28;20023;-67
2021/04/16 06:32:36;;;;;;;6.57;2.57;;;9.00;48.80;;;;;;5076060;28;20021;-66
2021/04/16 06:35:02;;;;;;;10.80;2.93;;;9.10;48.70;;;;;;5076393;28;20028;-68
2021/04/16 06:37:28;;;;;;;12.37;3.57;;;9.10;48.50;;;;;;5076226;28;20667;-67
2021/04/16 06:39:53;;;;;;;4.53;2.80;;;9.20;48.80;;;;;;5075339;28;20020;-68
2021/04/16 06:42:26;;;;;;;6.33;3.30;;;9.30;48.10;;;;;;5074625;28;20173;-67
2021/04/16 06:44:57;;;;;;;6.75;2.90;;;9.30;47.40;;;;;;5075448;28;20028;-68
2021/04/16 06:47:47;;;;;;;6.73;2.70;;;9.40;47.60;;;;;;5075613;28;20036;-68
2021/04/16 06:50:15;;;;;;;5.70;3.00;;;9.40;48.10;;;;;;5074959;28;20032;-68
2021/04/16 06:52:55;;;;;;;5.50;3.10;;;9.50;48.30;;;;;;5075699;28;20388;-68
2021/04/16 06:55:26;;;;;;;8.83;2.90;;;9.60;48.50;;;;;;5075190;28;20015;-68
2021/04/16 06:58:01;;;;;;;9.00;3.27;;;9.70;48.20;;;;;;5075635;28;20021;-68
2021/04/16 07:00:31;;;;;;;5.83;3.00;;;9.70;47.50;;;;;;5075599;28;20054;-68
2021/04/16 07:03:10;;;;;;;9.07;3.00;;;9.80;48.10;;;;;;5071629;28;20043;-68
2021/04/16 07:06:00;;;;;;;9.47;2.97;;;9.80;48.40;;;;;;5056549;28;20037;-68
2021/04/16 07:08:45;;;;;;;5.77;2.87;;;9.90;47.90;;;;;;5055261;28;20492;-68
2021/04/16 07:11:25;;;;;;;6.43;2.70;;;10.00;47.80;;;;;;5054993;28;20021;-68
2021/04/16 07:13:51;;;;;;;13.30;3.73;;;10.10;48.20;;;;;;5055364;28;20517;-68
2021/04/16 07:16:20;;;;;;;10.37;3.30;;;10.10;47.40;;;;;;5055237;28;20071;-68
2021/04/16 07:18:50;;;;;;;11.13;3.20;;;10.20;47.80;;;;;;5055794;28;20492;-68
2021/04/16 07:21:18;;;;;;;7.33;2.97;;;10.30;48.80;;;;;;5055034;28;20028;-68
2021/04/16 07:23:49;;;;;;;6.43;3.30;;;;;;;;;;5055517;28;20068;-68
2021/04/16 07:26:27;;;;;;;5.40;2.80;;;10.40;44.00;;;;;;5054201;28;20024;-68
2021/04/16 07:28:55;;;;;;;5.43;2.50;;;10.40;43.80;;;;;;5055409;28;20054;-68
2021/04/16 07:31:32;;;;;;;4.60;2.63;;;10.50;43.70;;;;;;5055360;28;20032;-67
2021/04/16 07:33:59;;;;;;;7.87;3.17;;;10.60;45.00;;;;;;5055280;28;20044;-68
2021/04/16 07:36:38;;;;;;;20.03;3.87;;;10.60;45.10;;;;;;5055227;28;20064;-66
2021/04/16 07:39:32;;;;;;;13.57;3.20;;;10.60;45.90;;;;;;5055023;28;20036;-68
2021/04/16 07:42:18;;;;;;;;;;;10.70;46.30;;;;;;5055362;28;20037;-68
2021/04/16 07:45:05;;;;;;;7.90;2.83;;;10.80;44.80;;;;;;5055230;28;20433;-67
2021/04/16 07:47:32;;;;;;;4.30;2.67;;;10.90;43.70;;;;;;5054857;28;20029;-68
2021/04/16 07:50:03;;;;;;;3.57;2.70;;;11.00;42.40;;;;;;5054815;28;20063;-68
2021/04/16 07:52:34;;;;;;;8.33;2.90;;;11.00;42.40;;;;;;5054721;28;20029;-67
2021/04/16 07:55:11;;;;;;;4.83;2.53;;;11.00;42.40;;;;;;5054485;28;20037;-67
2021/04/16 07:57:39;;;;;;;7.57;3.03;;;11.10;42.30;;;;;;5054704;28;20025;-68
2021/04/16 08:00:09;;;;;;;6.20;2.27;;;11.20;42.10;;;;;;5054412;28;20031;-68
2021/04/16 08:02:42;;;;;;;6.20;3.33;;;11.20;42.60;;;;;;5054492;28;20032;-68
2021/04/16 08:05:23;;;;;;;4.47;2.70;;;11.30;41.90;;;;;;5054545;28;20071;-68
2021/04/16 08:08:06;;;;;;;5.20;2.60;;;11.40;42.20;;;;;;5054573;28;20021;-68
2021/04/16 08:10:33;;;;;;;5.72;3.00;;;11.40;43.10;;;;;;5053776;28;20094;-69
2021/04/16 08:13:31;;;;;;;6.53;2.58;;;11.50;42.50;;;;;;5054416;28;20029;-69
2021/04/16 08:16:14;;;;;;;9.00;2.83;;;11.60;39.10;;;;;;5053932;28;20045;-68
2021/04/16 08:19:00;;;;;;;5.53;2.60;;;11.60;39.60;;;;;;5054577;28;20485;-69
2021/04/16 08:21:26;;;;;;;3.88;2.60;;;11.70;40.70;;;;;;5054495;28;20021;-68
2021/04/16 08:23:56;;;;;;;5.82;2.78;;;11.70;39.50;;;;;;5054168;28;20033;-67
2021/04/16 08:26:40;;;;;;;5.00;2.60;;;11.80;40.40;;;;;;5053547;28;20035;-70
2021/04/16 08:29:26;;;;;;;4.10;2.35;;;11.90;41.20;;;;;;5053269;28;20071;-68
2021/04/16 08:32:15;;;;;;;7.15;2.70;;;12.00;39.70;;;;;;5053463;28;20033;-68
2021/04/16 08:34:46;;;;;;;3.33;2.40;;;12.00;41.70;;;;;;5021441;28;20034;-68
2021/04/16 08:37:20;;;;;;;5.70;2.83;;;12.20;41.60;;;;;;5053796;28;20017;-69
2021/04/16 08:39:46;;;;;;;2.58;2.10;;;12.20;40.70;;;;;;5053947;28;20043;-68
2021/04/16 08:42:38;;;;;;;7.78;2.75;;;12.30;42.50;;;;;;5053669;28;20090;-68
2021/04/16 08:45:22;;;;;;;4.35;2.60;;;12.40;41.20;;;;;;5050692;28;20370;-68
2021/04/16 08:47:57;;;;;;;4.10;2.35;;;12.50;39.20;;;;;;5052282;28;20401;-68
2021/04/16 08:50:31;;;;;;;8.30;2.67;;;12.60;39.20;;;;;;5052576;28;20055;-68
2021/04/16 08:53:00;;;;;;;5.93;2.63;;;12.60;40.50;;;;;;5051588;28;20027;-68
2021/04/16 08:55:35;;;;;;;5.68;2.80;;;12.70;41.10;;;;;;5052133;28;20378;-68
2021/04/16 08:58:11;;;;;;;12.30;2.53;;;12.80;40.90;;;;;;5051635;28;20103;-68
2021/04/16 09:00:39;;;;;;;4.47;2.55;;;12.90;40.20;;;;;;5051679;28;20017;-68
2021/04/16 09:03:25;;;;;;;5.45;3.08;;;13.00;36.70;;;;;;5053088;28;20491;-68
2021/04/16 09:05:56;;;;;;;5.20;2.60;;;12.90;36.40;;;;;;5052901;28;20033;-68
2021/04/16 09:08:39;;;;;;;5.00;2.70;;;13.00;36.90;;;;;;5053012;28;20025;-68
2021/04/16 09:11:07;;;;;;;7.80;2.50;;;13.10;37.20;;;;;;5052327;28;20504;-68
2021/04/16 09:13:33;;;;;;;7.00;2.90;;;13.20;37.70;;;;;;5052905;28;20083;-68
2021/04/16 09:16:19;;;;;;;4.95;2.40;;;13.20;36.80;;;;;;5053182;28;20420;-69
2021/04/16 09:18:51;;;;;;;4.22;2.47;;;13.20;35.70;;;;;;5053098;28;20100;-68
2021/04/16 09:21:26;;;;;;;6.22;2.47;;;13.30;36.80;;;;;;5052842;28;20051;-69
2021/04/16 09:23:55;;;;;;;5.90;2.58;;;13.40;38.10;;;;;;5053043;28;20021;-68
2021/04/16 09:26:53;;;;;;;5.20;2.70;;;13.50;37.60;;;;;;5052686;28;20021;-68
2021/04/16 09:29:40;;;;;;;4.28;2.45;;;13.60;38.20;;;;;;5019585;28;20041;-68
2021/04/16 09:32:33;;;;;;;7.38;2.90;;;13.70;38.20;;;;;;5052579;28;20032;-68
2021/04/16 09:35:19;;;;;;;6.88;2.80;;;13.80;38.80;;;;;;5052644;28;20481;-69
2021/04/16 09:37:51;;;;;;;5.88;3.10;;;13.90;36.90;;;;;;5041994;28;20063;-68
2021/04/16 09:40:21;;;;;;;4.65;2.35;;;14.00;34.50;;;;;;5052970;28;20027;-69
2021/04/16 09:43:08;;;;;;;4.28;2.83;;;14.10;35.80;;;;;;5052735;28;20045;-68
2021/04/16 09:45:34;;;;;;;4.72;2.58;;;14.10;31.80;;;;;;5052653;28;20108;-69
2021/04/16 09:48:05;;;;;;;4.97;2.40;;;14.10;34.10;;;;;;5052503;28;20147;-69
2021/04/16 09:50:34;;;;;;;4.68;2.55;;;14.10;34.40;;;;;;5052048;28;20052;-69
2021/04/16 09:53:15;;;;;;;3.40;2.33;;;14.10;36.70;;;;;;5052984;28;20374;-68
2021/04/16 09:55:50;;;;;;;3.53;2.08;;;14.20;36.30;;;;;;5052538;28;20104;-69
2021/04/16 09:58:39;;;;;;;3.20;2.28;;;14.30;35.60;;;;;;5052581;28;20025;-69
2021/04/16 10:01:08;;;;;;;4.50;2.30;;;14.40;33.20;;;;;;5044303;28;20030;-68
2021/04/16 10:03:46;;;;;;;4.25;2.38;;;14.40;35.00;;;;;;5052390;28;20041;-69
2021/04/16 10:06:34;;;;;;;4.45;2.75;;;14.50;35.40;;;;;;5052867;28;20166;-69
2021/04/16 10:09:06;;;;;;;3.28;2.30;;;14.50;33.10;;;;;;5052512;28;20021;-69
2021/04/16 10:11:32;;;;;;;3.10;2.15;;;14.50;34.10;;;;;;5052531;28;20033;-68
2021/04/16 10:14:20;;;;;;;3.53;2.10;;;14.50;33.60;;;;;;5052773;28;20025;-68
2021/04/16 10:16:50;;;;;;;5.70;3.05;;;14.70;35.80;;;;;;5052771;28;20024;-69
2021/04/16 10:19:22;;;;;;;4.68;2.28;;;14.70;34.40;;;;;;5052597;28;20025;-69
2021/04/16 10:21:48;;;;;;;4.05;1.98;;;14.80;34.70;;;;;;5052373;28;20033;-69
2021/04/16 10:31:07;;;;;;;4.82;1.92;;;15.00;33.60;;;;;;5052800;28;20052;-69
2021/04/16 11:16:49;;;;;;;4.05;1.98;;;15.90;31.20;;;;;;5055898;28;20074;-68
2021/04/16 11:45:09;;;;;;;2.47;1.52;;;16.40;32.50;;;;;;5055621;28;20118;-68
2021/04/16 12:41:27;;;;;;;2.38;1.60;;;16.00;32.80;;;;;;5052994;28;20421;-68
2021/04/16 12:43:53;;;;;;;3.45;1.95;;;16.00;31.30;;;;;;5052276;28;20025;-67
2021/04/16 12:46:23;;;;;;;4.82;2.38;;;15.90;33.50;;;;;;5053089;28;20060;-69
2021/04/16 12:48:48;;;;;;;3.42;2.00;;;15.90;33.30;;;;;;5053608;28;20040;-70
2021/04/16 13:23:02;;;;;;;3.05;2.00;;;15.60;33.40;;;;;;5130414;27;20302;-68
2021/04/16 13:25:30;;;;;;;6.10;2.20;;;15.60;32.40;;;;;;5129412;28;20379;-69
2021/04/16 13:27:56;;;;;;;4.55;2.08;;;15.70;34.00;;;;;;5130933;28;20115;-69
2021/04/16 13:30:25;;;;;;;5.43;2.35;;;15.70;35.20;;;;;;5130636;28;20098;-66
2021/04/16 13:32:54;;;;;;;6.70;1.90;;;15.70;33.70;;;;;;5130218;27;20024;-68
2021/04/16 13:35:42;;;;;;;7.55;2.40;;;15.80;33.50;;;;;;5130268;27;20077;-67
2021/04/16 13:38:17;;;;;;;7.03;2.50;;;15.80;33.80;;;;;;5130175;28;20236;-69
2021/04/16 13:40:43;;;;;;;4.40;1.65;;;15.90;33.10;;;;;;5129553;27;20512;-67
2021/04/16 13:43:10;;;;;;;3.22;1.90;;;16.00;34.00;;;;;;5129782;27;20417;-67
2021/04/16 13:45:36;;;;;;;3.67;1.85;;;16.00;33.80;;;;;;5130917;27;20049;-67
2021/04/16 13:48:03;;;;;;;3.40;1.65;;;16.10;32.40;;;;;;5129134;28;20046;-68
2021/04/16 13:50:29;;;;;;;3.58;2.10;;;16.00;31.00;;;;;;5130382;27;20064;-68
2021/04/16 13:52:56;;;;;;;3.45;1.75;;;16.00;32.60;;;;;;5130614;28;20043;-68
2021/04/16 13:55:23;;;;;;;6.38;1.77;;;16.10;32.20;;;;;;5130726;27;20023;-68
2021/04/16 13:57:49;;;;;;;7.13;1.88;;;16.10;33.10;;;;;;5130902;27;20084;-68
2021/04/16 14:00:22;;;;;;;2.75;1.60;;;16.10;31.80;;;;;;5130580;27;20023;-68
2021/04/16 14:02:51;;;;;;;4.68;2.20;;;16.10;34.50;;;;;;5130180;27;20666;-68
2021/04/16 14:05:24;;;;;;;4.18;1.98;;;16.10;32.20;;;;;;5130597;28;20496;-69
2021/04/16 14:07:51;;;;;;;6.35;1.80;;;16.10;31.00;;;;;;5130308;27;20031;-70
2021/04/16 14:10:22;;;;;;;3.75;2.30;;;16.10;31.90;;;;;;5130361;27;20391;-68
2021/04/16 14:12:48;;;;;;;4.47;2.30;;;16.10;35.50;;;;;;5129956;27;20019;-68
2021/04/16 14:15:15;;;;;;;7.72;1.88;;;16.10;32.50;;;;;;5130398;27;20027;-68
2021/04/16 14:17:46;;;;;;;3.72;1.98;;;16.10;33.00;;;;;;5130619;27;20045;-68
2021/04/16 14:20:32;;;;;;;3.30;2.20;;;16.20;33.90;;;;;;5130469;27;20034;-69
2021/04/16 14:22:59;;;;;;;4.28;2.10;;;16.10;32.00;;;;;;5129951;28;20036;-68
2021/04/16 14:25:34;;;;;;;4.70;2.30;;;16.10;31.50;;;;;;5130345;28;20023;-68
2021/04/16 14:28:00;;;;;;;3.80;1.83;;;16.10;31.30;;;;;;5130109;27;20015;-68
2021/04/16 14:30:29;;;;;;;3.58;2.10;;;16.10;31.00;;;;;;5130191;27;20033;-68
2021/04/16 14:32:58;;;;;;;6.75;2.60;;;16.10;33.00;;;;;;5124719;27;20023;-67
2021/04/16 14:35:25;;;;;;;3.58;2.13;;;;;;;;;;5115837;28;20027;-67
2021/04/16 14:37:51;;;;;;;5.30;2.00;;;16.00;30.80;;;;;;5115584;28;20035;-67
2021/04/16 14:40:18;;;;;;;3.47;1.80;;;16.00;32.50;;;;;;5115878;28;20030;-67
2021/04/16 14:42:44;;;;;;;7.28;2.58;;;16.00;32.30;;;;;;5115901;28;20067;-67
2021/04/16 14:45:21;;;;;;;9.85;2.65;;;16.00;31.90;;;;;;5115811;28;20016;-67
2021/04/16 14:47:46;;;;;;;4.28;1.73;;;16.10;31.80;;;;;;5116316;28;20034;-69
2021/04/16 14:50:14;;;;;;;5.05;2.10;;;16.00;33.00;;;;;;5115415;28;20020;-69
2021/04/16 14:52:40;;;;;;;4.50;1.92;;;16.00;33.10;;;;;;5115213;28;20116;-68
2021/04/16 14:55:10;;;;;;;4.90;1.90;;;16.10;33.80;;;;;;5115133;28;20020;-68
2021/04/16 14:57:38;;;;;;;3.75;2.17;;;16.10;33.80;;;;;;5115177;28;20424;-68
2021/04/16 15:00:06;;;;;;;3.08;1.80;;;16.10;33.50;;;;;;5115341;28;20532;-68
2021/04/16 15:02:31;;;;;;;5.78;1.70;;;16.20;33.50;;;;;;5115302;28;20419;-68
2021/04/16 15:04:57;;;;;;;3.97;2.00;;;16.20;33.90;;;;;;5115385;28;20027;-68
2021/04/16 15:07:28;;;;;;;3.38;1.70;;;16.20;33.10;;;;;;5115859;28;20050;-67
2021/04/16 15:09:57;;;;;;;4.68;2.00;;;16.20;32.10;;;;;;5115518;28;20384;-68
2021/04/16 15:12:25;;;;;;;4.45;2.15;;;16.20;32.30;;;;;;5115608;28;20028;-67
2021/04/16 15:14:56;;;;;;;7.43;2.25;;;16.20;31.70;;;;;;5115934;28;20034;-68
2021/04/16 15:17:23;;;;;;;2.97;2.10;;;16.10;32.10;;;;;;5115616;28;20113;-68
2021/04/16 15:19:51;;;;;;;4.65;2.28;;;16.00;33.60;;;;;;5114515;28;20024;-68
2021/04/16 15:22:23;;;;;;;3.35;2.28;;;16.00;33.00;;;;;;5114482;28;20077;-67
2021/04/16 15:24:51;;;;;;;4.00;2.03;;;16.00;34.20;;;;;;5115193;28;20015;-67
2021/04/16 15:27:24;;;;;;;6.47;2.85;;;16.00;32.20;;;;;;5115276;28;20103;-68
2021/04/16 15:29:57;;;;;;;;;;;16.00;32.20;;;;;;5115601;28;20035;-67
2021/04/16 15:32:31;;;;;;;4.50;2.50;;;16.00;32.30;;;;;;5115372;28;20644;-68
2021/04/16 15:46:02;;;;;;;6.07;2.72;;;15.80;34.20;;;;;;5114955;28;20051;-68
2021/04/16 15:48:31;;;;;;;6.40;2.22;;;15.80;33.50;;;;;;5115300;28;20031;-68
2021/04/16 15:51:04;;;;;;;5.13;2.28;;;15.80;33.30;;;;;;5115142;28;20024;-67
2021/04/16 15:53:30;;;;;;;3.92;2.50;;;15.80;34.60;;;;;;5115426;28;20031;-67
2021/04/16 15:55:57;;;;;;;4.40;2.47;;;15.80;34.40;;;;;;5115211;28;20371;-67
2021/04/16 15:58:27;;;;;;;7.82;3.00;;;15.80;35.00;;;;;;5115083;28;20080;-68